createdAt,value
2018-06-22T00:00:49.919Z,9.5
2018-06-22T00:01:51.952Z,9.4
2018-06-22T00:02:53.973Z,9.5
2018-06-22T00:03:55.998Z,9.5
2018-06-22T00:04:58.030Z,9.5
2018-06-22T00:06:00.771Z,9.5
2018-06-22T00:07:02.804Z,9.5
2018-06-22T00:08:05.142Z,9.5
2018-06-22T00:09:07.162Z,9.5
2018-06-22T00:10:09.197Z,9.5
2018-06-22T00:11:11.227Z,9.5
2018-06-22T00:12:13.539Z,9.4
2018-06-22T00:13:15.580Z,9.4
2018-06-22T00:14:17.899Z,9.4
2018-06-22T00:15:19.919Z,9.5
2018-06-22T00:16:22.261Z,9.4
2018-06-22T00:17:24.276Z,9.4
2018-06-22T00:18:26.315Z,9.4
2018-06-22T00:19:28.340Z,9.5
2018-06-22T00:20:30.368Z,9.5
2018-06-22T00:21:32.405Z,9.4
2018-06-22T00:22:34.434Z,9.5
2018-06-22T00:23:36.463Z,9.5
2018-06-22T00:24:38.793Z,9.5
2018-06-22T00:25:40.813Z,9.5
2018-06-22T00:26:42.848Z,9.5
2018-06-22T00:27:44.879Z,9.5
2018-06-22T00:28:46.916Z,9.5
2018-06-22T00:29:48.944Z,9.5
2018-06-22T00:30:51.258Z,9.6
2018-06-22T00:31:53.300Z,9.5
2018-06-22T00:32:55.323Z,9.6
2018-06-22T00:33:57.350Z,9.6
2018-06-22T00:34:59.389Z,9.6
2018-06-22T00:36:01.706Z,9.6
2018-06-22T00:37:04.049Z,9.6
2018-06-22T00:38:06.077Z,9.6
2018-06-22T00:39:08.098Z,9.6
2018-06-22T00:40:10.130Z,9.6
2018-06-22T00:41:12.161Z,9.6
2018-06-22T00:42:14.197Z,9.6
2018-06-22T00:43:16.517Z,9.6
2018-06-22T00:44:18.851Z,9.6
2018-06-22T00:45:20.889Z,9.7
2018-06-22T00:46:22.911Z,9.7
2018-06-22T00:47:25.225Z,9.7
2018-06-22T00:48:27.273Z,9.7
2018-06-22T00:49:29.689Z,9.7
2018-06-22T00:50:31.722Z,9.7
2018-06-22T00:51:33.751Z,9.7
2018-06-22T00:52:35.778Z,9.8
2018-06-22T00:53:37.813Z,9.8
2018-06-22T00:54:39.848Z,9.8
2018-06-22T00:55:41.892Z,9.8
2018-06-22T00:56:44.222Z,9.8
2018-06-22T00:57:46.232Z,9.8
2018-06-22T00:58:48.577Z,9.8
2018-06-22T00:59:50.886Z,9.8
2018-06-22T01:00:52.919Z,9.8
2018-06-22T01:01:55.246Z,9.8
2018-06-22T01:02:57.282Z,9.8
2018-06-22T01:03:59.626Z,9.8
2018-06-22T01:05:01.962Z,9.8
2018-06-22T01:06:03.999Z,9.8
2018-06-22T01:07:06.038Z,9.8
2018-06-22T01:08:08.451Z,9.8
2018-06-22T01:09:10.479Z,9.8
2018-06-22T01:10:12.503Z,9.9
2018-06-22T01:11:14.549Z,9.8
2018-06-22T01:12:16.579Z,9.9
2018-06-22T01:13:18.610Z,9.9
2018-06-22T01:14:21.019Z,9.8
2018-06-22T01:15:23.443Z,9.9
2018-06-22T01:16:25.473Z,9.9
2018-06-22T01:17:27.498Z,9.9
2018-06-22T01:18:29.924Z,9.9
2018-06-22T01:19:32.341Z,9.9
2018-06-22T01:20:34.375Z,9.9
2018-06-22T01:21:36.449Z,9.9
2018-06-22T01:22:38.718Z,9.9
2018-06-22T01:23:40.751Z,9.9
2018-06-22T01:24:42.781Z,9.9
2018-06-22T01:25:44.820Z,9.9
2018-06-22T01:26:47.190Z,9.9
2018-06-22T01:27:49.222Z,9.9
2018-06-22T01:28:51.263Z,9.9
2018-06-22T01:29:53.668Z,9.9
2018-06-22T01:30:55.698Z,9.9
2018-06-22T01:31:57.744Z,9.9
2018-06-22T01:32:59.763Z,9.9
2018-06-22T01:34:02.472Z,9.9
2018-06-22T01:35:04.501Z,9.9
2018-06-22T01:36:06.919Z,9.9
2018-06-22T01:37:08.952Z,9.9
2018-06-22T01:38:10.970Z,9.9
2018-06-22T01:39:13.007Z,9.9
2018-06-22T01:40:15.325Z,9.9
2018-06-22T01:41:17.355Z,9.9
2018-06-22T01:42:19.390Z,10
2018-06-22T01:43:21.424Z,9.9
2018-06-22T01:44:23.752Z,9.9
2018-06-22T01:45:25.778Z,9.9
2018-06-22T01:46:27.809Z,10
2018-06-22T01:47:30.136Z,10
2018-06-22T01:48:32.164Z,10
2018-06-22T01:49:34.202Z,10
2018-06-22T01:50:36.245Z,10
2018-06-22T01:51:38.273Z,9.9
2018-06-22T01:52:40.304Z,9.9
2018-06-22T01:53:42.645Z,10
2018-06-22T01:54:44.682Z,10
2018-06-22T01:55:46.719Z,10
2018-06-22T01:56:48.761Z,10
2018-06-22T01:57:50.783Z,10
2018-06-22T01:58:53.096Z,10
2018-06-22T01:59:55.138Z,10
2018-06-22T02:00:57.156Z,10
2018-06-22T02:01:59.202Z,9.9
2018-06-22T02:03:01.230Z,9.9
2018-06-22T02:04:03.560Z,10
2018-06-22T02:05:05.586Z,9.9
2018-06-22T02:06:07.618Z,9.9
2018-06-22T02:07:09.680Z,9.9
2018-06-22T02:08:11.675Z,9.9
2018-06-22T02:09:13.705Z,9.9
2018-06-22T02:10:16.106Z,9.9
2018-06-22T02:11:18.149Z,9.9
2018-06-22T02:12:20.194Z,10
2018-06-22T02:13:22.225Z,9.9
2018-06-22T02:14:24.259Z,9.9
2018-06-22T02:15:26.290Z,9.9
2018-06-22T02:16:28.317Z,9.9
2018-06-22T02:17:30.354Z,9.9
2018-06-22T02:18:32.387Z,10
2018-06-22T02:19:34.421Z,10
2018-06-22T02:20:36.749Z,10
2018-06-22T02:21:38.770Z,10
2018-06-22T02:22:40.818Z,10
2018-06-22T02:23:42.835Z,9.9
2018-06-22T02:24:44.873Z,9.9
2018-06-22T02:25:46.898Z,9.9
2018-06-22T02:26:48.927Z,9.9
2018-06-22T02:27:50.949Z,10
2018-06-22T02:28:52.985Z,10
2018-06-22T02:29:55.687Z,10
2018-06-22T02:30:58.792Z,10
2018-06-22T02:32:01.134Z,9.9
2018-06-22T02:33:03.161Z,9.9
2018-06-22T02:34:05.478Z,9.9
2018-06-22T02:35:07.532Z,9.9
2018-06-22T02:36:09.557Z,9.9
2018-06-22T02:37:11.585Z,9.9
2018-06-22T02:38:13.616Z,9.9
2018-06-22T02:39:15.641Z,9.9
2018-06-22T02:40:18.072Z,9.9
2018-06-22T02:41:20.493Z,9.9
2018-06-22T02:42:22.920Z,9.8
2018-06-22T02:43:25.611Z,9.8
2018-06-22T02:44:28.301Z,9.8
2018-06-22T02:45:30.336Z,9.8
2018-06-22T02:46:32.367Z,9.8
2018-06-22T02:47:34.409Z,9.8
2018-06-22T02:48:40.129Z,9.8
2018-06-22T02:49:45.155Z,9.8
2018-06-22T02:50:47.433Z,9.8
2018-06-22T02:51:50.000Z,9.8
2018-06-22T02:52:53.600Z,9.8
2018-06-22T02:53:55.800Z,9.8
2018-06-22T02:54:58.074Z,9.8
2018-06-22T02:56:00.830Z,9.8
2018-06-22T02:57:02.869Z,9.8
2018-06-22T02:58:04.848Z,9.8
2018-06-22T02:59:07.162Z,9.8
2018-06-22T03:00:12.225Z,9.8
2018-06-22T03:01:16.214Z,9.8
2018-06-22T03:02:18.240Z,9.9
2018-06-22T03:03:23.298Z,9.8
2018-06-22T03:04:25.301Z,9.8
2018-06-22T03:05:27.616Z,9.9
2018-06-22T03:06:29.609Z,9.8
2018-06-22T03:07:31.595Z,9.8
2018-06-22T03:08:34.002Z,9.8
2018-06-22T03:09:37.457Z,9.8
2018-06-22T03:10:40.497Z,9.8
2018-06-22T03:11:43.509Z,9.8
2018-06-22T03:12:48.890Z,9.8
2018-06-22T03:13:53.958Z,9.8
2018-06-22T03:14:55.957Z,9.8
2018-06-22T03:15:57.953Z,9.8
2018-06-22T03:17:03.555Z,9.8
2018-06-22T03:18:05.539Z,9.8
2018-06-22T03:19:08.556Z,9.8
2018-06-22T03:20:10.976Z,9.8
2018-06-22T03:21:13.016Z,9.8
2018-06-22T03:22:15.040Z,9.8
2018-06-22T03:23:17.369Z,9.8
2018-06-22T03:24:19.686Z,9.8
2018-06-22T03:25:21.679Z,9.9
2018-06-22T03:26:23.695Z,9.9
2018-06-22T03:27:25.740Z,9.9
2018-06-22T03:28:27.734Z,9.9
2018-06-22T03:29:31.168Z,9.9
2018-06-22T03:30:33.599Z,9.9
2018-06-22T03:31:36.162Z,9.9
2018-06-22T03:32:38.147Z,9.9
2018-06-22T03:33:40.172Z,9.9
2018-06-22T03:34:42.205Z,9.9
2018-06-22T03:35:44.203Z,9.9
2018-06-22T03:36:46.221Z,9.9
2018-06-22T03:37:48.216Z,10
2018-06-22T03:38:50.215Z,10
2018-06-22T03:39:52.203Z,10
2018-06-22T03:40:54.220Z,10
2018-06-22T03:41:56.209Z,10
2018-06-22T03:42:58.238Z,10
2018-06-22T03:44:00.264Z,10
2018-06-22T03:45:02.679Z,10.1
2018-06-22T03:46:04.714Z,10.1
2018-06-22T03:47:07.050Z,10.1
2018-06-22T03:48:09.059Z,10.1
2018-06-22T03:49:11.094Z,10.1
2018-06-22T03:50:13.124Z,10.1
2018-06-22T03:51:15.480Z,10.2
2018-06-22T03:52:17.799Z,10.2
2018-06-22T03:53:19.832Z,10.2
2018-06-22T03:54:21.871Z,10.2
2018-06-22T03:55:23.905Z,10.3
2018-06-22T03:56:25.941Z,10.3
2018-06-22T03:57:28.285Z,10.3
2018-06-22T03:58:30.319Z,10.3
2018-06-22T03:59:32.352Z,10.3
2018-06-22T04:00:34.368Z,10.3
2018-06-22T04:01:36.688Z,10.4
2018-06-22T04:02:38.725Z,10.4
2018-06-22T04:03:40.758Z,10.4
2018-06-22T04:04:42.799Z,10.5
2018-06-22T04:05:44.824Z,10.5
2018-06-22T04:06:46.863Z,10.5
2018-06-22T04:07:48.889Z,10.6
2018-06-22T04:08:51.201Z,10.6
2018-06-22T04:09:53.234Z,10.7
2018-06-22T04:10:55.268Z,10.7
2018-06-22T04:11:57.581Z,10.7
2018-06-22T04:12:59.904Z,10.7
2018-06-22T04:14:01.942Z,10.8
2018-06-22T04:15:03.985Z,10.7
2018-06-22T04:16:06.006Z,10.8
2018-06-22T04:17:08.055Z,10.8
2018-06-22T04:18:10.377Z,10.9
2018-06-22T04:19:12.406Z,10.9
2018-06-22T04:20:14.445Z,10.9
2018-06-22T04:21:16.475Z,10.9
2018-06-22T04:22:18.520Z,10.9
2018-06-22T04:23:21.121Z,10.9
2018-06-22T04:24:23.518Z,10.9
2018-06-22T04:25:25.901Z,10.9
2018-06-22T04:26:27.929Z,10.9
2018-06-22T04:27:29.966Z,10.9
2018-06-22T04:28:31.997Z,10.9
2018-06-22T04:29:34.302Z,11
2018-06-22T04:30:36.338Z,11
2018-06-22T04:31:38.672Z,11
2018-06-22T04:32:40.697Z,11
2018-06-22T04:33:43.030Z,10.9
2018-06-22T04:34:45.065Z,10.9
2018-06-22T04:35:47.098Z,11
2018-06-22T04:36:49.510Z,11
2018-06-22T04:37:51.541Z,11
2018-06-22T04:38:53.584Z,11
2018-06-22T04:39:55.621Z,11
2018-06-22T04:40:57.631Z,11
2018-06-22T04:41:59.674Z,10.9
2018-06-22T04:43:01.692Z,10.9
2018-06-22T04:44:03.728Z,10.9
2018-06-22T04:45:05.771Z,10.9
2018-06-22T04:46:07.787Z,10.9
2018-06-22T04:47:09.831Z,10.9
2018-06-22T04:48:11.852Z,10.9
2018-06-22T04:49:13.887Z,10.9
2018-06-22T04:50:15.936Z,10.9
2018-06-22T04:51:18.345Z,10.9
2018-06-22T04:52:20.397Z,10.9
2018-06-22T04:53:22.430Z,10.9
2018-06-22T04:54:24.466Z,10.9
2018-06-22T04:55:26.495Z,11
2018-06-22T04:56:28.533Z,10.9
2018-06-22T04:57:30.571Z,10.7
2018-06-22T04:58:32.601Z,10.8
2018-06-22T04:59:34.936Z,10.7
2018-06-22T05:00:37.261Z,10.7
2018-06-22T05:01:39.296Z,10.7
2018-06-22T05:02:41.340Z,10.7
2018-06-22T05:03:43.453Z,10.7
2018-06-22T05:04:45.402Z,10.7
2018-06-22T05:05:47.814Z,10.7
2018-06-22T05:06:49.855Z,10.7
2018-06-22T05:07:51.888Z,10.8
2018-06-22T05:08:54.304Z,10.7
2018-06-22T05:09:56.342Z,10.6
2018-06-22T05:10:58.375Z,10.6
2018-06-22T05:12:00.695Z,10.6
2018-06-22T05:13:02.719Z,10.6
2018-06-22T05:14:04.760Z,10.6
2018-06-22T05:15:06.791Z,10.6
2018-06-22T05:16:08.821Z,10.7
2018-06-22T05:17:10.849Z,10.7
2018-06-22T05:18:13.161Z,10.7
2018-06-22T05:19:15.196Z,10.6
2018-06-22T05:20:17.222Z,10.6
2018-06-22T05:21:19.958Z,10.5
2018-06-22T05:22:21.988Z,10.5
2018-06-22T05:23:24.006Z,10.5
2018-06-22T05:25:17.356Z,10.6
2018-06-22T05:26:19.396Z,10.5
2018-06-22T05:27:21.428Z,10.7
2018-06-22T05:29:23.576Z,10.7
2018-06-22T05:30:25.636Z,10.8
2018-06-22T05:31:27.940Z,10.9
2018-06-22T05:32:29.934Z,10.9
2018-06-22T05:33:32.307Z,10.9
2018-06-22T05:34:34.308Z,10.9
2018-06-22T05:35:36.568Z,11
2018-06-22T05:36:38.558Z,10.8
2018-06-22T05:37:40.563Z,10.9
2018-06-22T05:38:42.548Z,11
2018-06-22T05:39:44.532Z,10.9
2018-06-22T05:40:46.819Z,11
2018-06-22T05:41:48.800Z,11.1
2018-06-22T05:42:51.197Z,11.1
2018-06-22T05:43:53.464Z,11.1
2018-06-22T05:44:55.441Z,11.1
2018-06-22T05:45:57.434Z,11
2018-06-22T05:46:59.429Z,11
2018-06-22T05:48:01.426Z,11.1
2018-06-22T05:49:03.427Z,11.1
2018-06-22T05:50:06.084Z,11.1
2018-06-22T05:51:08.484Z,11.1
2018-06-22T05:52:11.039Z,11.1
2018-06-22T05:53:13.414Z,11.2
2018-06-22T05:54:15.418Z,11.3
2018-06-22T05:55:17.409Z,11.3
2018-06-22T05:56:19.401Z,11.4
2018-06-22T05:57:21.782Z,11.5
2018-06-22T05:58:23.770Z,11.4
2018-06-22T05:59:25.768Z,11.5
2018-06-22T06:00:27.750Z,11.6
2018-06-22T06:01:29.755Z,11.6
2018-06-22T06:02:31.739Z,11.6
2018-06-22T06:03:33.787Z,11.6
2018-06-22T06:04:35.723Z,11.6
2018-06-22T06:05:38.105Z,11.6
2018-06-22T06:06:40.102Z,11.6
2018-06-22T06:07:42.086Z,11.7
2018-06-22T06:08:44.083Z,11.6
2018-06-22T06:09:46.394Z,11.6
2018-06-22T06:10:48.651Z,11.7
2018-06-22T06:11:50.648Z,11.8
2018-06-22T06:12:52.647Z,11.8
2018-06-22T06:13:54.918Z,11.9
2018-06-22T06:14:56.908Z,12
2018-06-22T06:15:58.906Z,12
2018-06-22T06:17:00.898Z,12
2018-06-22T06:18:02.896Z,12.1
2018-06-22T06:19:05.166Z,12.2
2018-06-22T06:20:07.237Z,12.1
2018-06-22T06:21:09.432Z,12.3
2018-06-22T06:22:11.420Z,12.2
2018-06-22T06:23:13.413Z,12.3
2018-06-22T06:24:15.404Z,12.3
2018-06-22T06:25:17.392Z,12.2
2018-06-22T06:26:20.061Z,12.3
2018-06-22T06:27:23.091Z,12.3
2018-06-22T06:28:25.579Z,12.2
2018-06-22T06:29:27.569Z,12.2
2018-06-22T06:30:29.846Z,12.3
2018-06-22T06:31:32.122Z,12.3
2018-06-22T06:32:34.384Z,12.3
2018-06-22T06:33:36.386Z,12.5
2018-06-22T06:34:38.384Z,12.5
2018-06-22T06:35:40.648Z,12.6
2018-06-22T06:36:42.646Z,12.7
2018-06-22T06:37:44.645Z,12.8
2018-06-22T06:38:46.646Z,12.9
2018-06-22T06:39:48.910Z,12.9
2018-06-22T06:40:50.903Z,12.9
2018-06-22T06:41:52.954Z,12.9
2018-06-22T06:42:55.256Z,12.9
2018-06-22T06:43:57.238Z,13
2018-06-22T06:44:59.225Z,13.1
2018-06-22T06:46:01.235Z,13
2018-06-22T06:47:03.895Z,13
2018-06-22T06:48:05.890Z,13.1
2018-06-22T06:49:07.874Z,13
2018-06-22T06:50:09.865Z,13
2018-06-22T06:51:11.851Z,13.1
2018-06-22T06:52:13.851Z,12.9
2018-06-22T06:53:16.142Z,12.9
2018-06-22T06:54:18.133Z,12.9
2018-06-22T06:55:20.903Z,13
2018-06-22T06:56:23.181Z,13
2018-06-22T06:57:25.562Z,13
2018-06-22T06:58:27.547Z,13
2018-06-22T06:59:29.832Z,12.9
2018-06-22T07:00:31.826Z,12.9
2018-06-22T07:01:33.830Z,12.9
2018-06-22T07:02:35.861Z,13
2018-06-22T07:03:37.827Z,13
2018-06-22T07:04:39.821Z,13
2018-06-22T07:05:41.827Z,12.9
2018-06-22T07:06:43.813Z,12.9
2018-06-22T07:07:46.100Z,13
2018-06-22T07:08:48.098Z,12.9
2018-06-22T07:09:50.086Z,12.8
2018-06-22T07:10:52.084Z,12.9
2018-06-22T07:11:54.075Z,13
2018-06-22T07:12:56.070Z,13
2018-06-22T07:13:58.062Z,13
2018-06-22T07:15:00.044Z,13
2018-06-22T07:16:02.335Z,13.1
2018-06-22T07:17:04.765Z,13
2018-06-22T07:18:06.716Z,13
2018-06-22T07:19:08.707Z,13
2018-06-22T07:20:10.706Z,13.1
2018-06-22T07:21:13.006Z,13.1
2018-06-22T07:22:15.289Z,13.2
2018-06-22T07:23:17.566Z,13.3
2018-06-22T07:24:19.574Z,13.2
2018-06-22T07:25:21.559Z,13
2018-06-22T07:26:23.597Z,13.1
2018-06-22T07:27:25.546Z,12.9
2018-06-22T07:28:27.538Z,13
2018-06-22T07:29:29.529Z,13
2018-06-22T07:30:31.888Z,13.1
2018-06-22T07:31:33.849Z,13.2
2018-06-22T07:32:35.847Z,13.2
2018-06-22T07:33:37.829Z,13.4
2018-06-22T07:34:39.827Z,13.4
2018-06-22T07:35:41.827Z,13.4
2018-06-22T07:36:43.818Z,13.3
2018-06-22T07:37:45.822Z,13.3
2018-06-22T07:38:47.861Z,13.5
2018-06-22T07:39:49.858Z,13.6
2018-06-22T07:40:51.858Z,13.7
2018-06-22T07:41:54.144Z,13.9
2018-06-22T07:42:56.133Z,13.9
2018-06-22T07:43:58.620Z,14
2018-06-22T07:45:00.586Z,14
2018-06-22T07:46:02.892Z,14
2018-06-22T07:47:04.875Z,13.9
2018-06-22T07:48:06.889Z,13.9
2018-06-22T07:49:09.172Z,13.9
2018-06-22T07:50:11.155Z,13.9
2018-06-22T07:51:13.155Z,14.1
2018-06-22T07:52:15.146Z,14.1
2018-06-22T07:53:17.148Z,14.3
2018-06-22T07:54:19.157Z,14.4
2018-06-22T07:55:21.440Z,14.4
2018-06-22T07:56:23.436Z,14.4
2018-06-22T07:57:25.432Z,14.4
2018-06-22T07:58:27.708Z,14.3
2018-06-22T07:59:29.721Z,14.4
2018-06-22T08:00:31.721Z,14.5
2018-06-22T08:01:33.721Z,14.7
2018-06-22T08:02:35.721Z,15
2018-06-22T08:03:37.716Z,14.9
2018-06-22T08:04:40.000Z,14.9
2018-06-22T08:05:41.988Z,14.8
2018-06-22T08:06:43.996Z,14.6
2018-06-22T08:07:46.278Z,14.6
2018-06-22T08:08:48.278Z,14.5
2018-06-22T08:09:50.270Z,14.4
2018-06-22T08:10:52.261Z,14.4
2018-06-22T08:11:54.268Z,14.2
2018-06-22T08:12:56.272Z,14.3
2018-06-22T08:13:58.262Z,14.3
2018-06-22T08:15:00.600Z,14.2
2018-06-22T08:16:02.605Z,14.2
2018-06-22T08:17:04.916Z,14.3
2018-06-22T08:18:06.912Z,14.3
2018-06-22T08:19:08.988Z,14.4
2018-06-22T08:20:11.015Z,14.4
2018-06-22T08:21:13.018Z,14.3
2018-06-22T08:22:15.014Z,14.3
2018-06-22T08:23:17.104Z,14.2
2018-06-22T08:24:19.100Z,14.3
2018-06-22T08:25:21.099Z,14.3
2018-06-22T08:26:23.425Z,14.1
2018-06-22T08:27:25.427Z,14.1
2018-06-22T08:28:27.428Z,14.1
2018-06-22T08:29:29.437Z,14.2
2018-06-22T08:30:31.425Z,14.2
2018-06-22T08:31:33.433Z,14.4
2018-06-22T08:32:35.415Z,14.6
2018-06-22T08:33:37.708Z,14.7
2018-06-22T08:34:39.706Z,14.8
2018-06-22T08:35:41.706Z,14.8
2018-06-22T08:36:43.997Z,14.8
2018-06-22T08:37:45.988Z,14.6
2018-06-22T08:38:47.989Z,14.6
2018-06-22T08:39:49.986Z,14.9
2018-06-22T08:40:51.969Z,14.9
2018-06-22T08:41:54.126Z,15.1
2018-06-22T08:42:55.970Z,15.4
2018-06-22T08:43:57.973Z,15.4
2018-06-22T08:44:59.961Z,15
2018-06-22T08:46:01.949Z,15.1
2018-06-22T08:47:03.965Z,15.1
2018-06-22T08:48:06.247Z,15
2018-06-22T08:49:08.911Z,14.9
2018-06-22T08:50:10.908Z,14.9
2018-06-22T08:51:12.910Z,14.9
2018-06-22T08:52:15.323Z,14.9
2018-06-22T08:53:17.598Z,15
2018-06-22T08:54:19.593Z,15
2018-06-22T08:55:21.600Z,14.9
2018-06-22T08:56:23.876Z,14.6
2018-06-22T08:57:25.882Z,14.6
2018-06-22T08:58:27.880Z,14.7
2018-06-22T08:59:29.884Z,15
2018-06-22T09:00:32.158Z,15
2018-06-22T09:01:34.152Z,15.1
2018-06-22T09:02:36.454Z,15.2
2018-06-22T09:03:38.756Z,15.5
2018-06-22T09:04:41.037Z,15.8
2018-06-22T09:05:43.025Z,15.8
2018-06-22T09:06:45.312Z,15.8
2018-06-22T09:07:47.690Z,15.6
2018-06-22T09:08:49.681Z,15.7
2018-06-22T09:10:04.405Z,15.6
2018-06-22T09:11:06.413Z,15.6
2018-06-22T09:12:08.401Z,15.5
2018-06-22T09:13:10.699Z,15.5
2018-06-22T09:14:12.972Z,15.4
2018-06-22T09:15:15.636Z,15.4
2018-06-22T09:16:17.629Z,15.4
2018-06-22T09:17:19.631Z,15.6
2018-06-22T09:18:21.620Z,15.7
2018-06-22T09:19:23.613Z,15.9
2018-06-22T09:20:25.902Z,15.8
2018-06-22T09:21:27.898Z,15.9
2018-06-22T09:22:30.169Z,16.3
2018-06-22T09:23:32.176Z,16.6
2018-06-22T09:24:34.561Z,16.5
2018-06-22T09:25:36.560Z,16.7
2018-06-22T09:26:38.546Z,16.9
2018-06-22T09:27:40.545Z,17.1
2018-06-22T09:28:42.539Z,17.2
2018-06-22T09:29:44.812Z,17.1
2018-06-22T09:30:46.809Z,17.1
2018-06-22T09:31:49.478Z,17.4
2018-06-22T09:32:51.767Z,17.5
2018-06-22T09:33:53.761Z,17.4
2018-06-22T09:34:55.761Z,17.3
2018-06-22T09:35:57.759Z,17.2
2018-06-22T09:36:59.767Z,16.9
2018-06-22T09:38:01.762Z,16.7
2018-06-22T09:39:03.763Z,16.7
2018-06-22T09:40:06.046Z,17
2018-06-22T09:41:08.053Z,17.2
2018-06-22T09:42:10.424Z,17.6
2018-06-22T09:43:12.430Z,17.7
2018-06-22T09:44:14.815Z,17.9
2018-06-22T09:45:16.820Z,17.8
2018-06-22T09:46:19.193Z,17.9
2018-06-22T09:47:21.203Z,17.9
2018-06-22T09:48:23.649Z,18
2018-06-22T09:49:25.933Z,18.1
2018-06-22T09:50:27.928Z,18.4
2018-06-22T09:51:29.947Z,18.5
2018-06-22T09:52:31.942Z,18.4
2018-06-22T09:53:34.212Z,18.3
2018-06-22T09:54:36.644Z,18.4
2018-06-22T09:55:38.646Z,18.4
2018-06-22T09:56:40.653Z,18.3
2018-06-22T09:57:42.940Z,18.4
2018-06-22T09:58:44.945Z,18.8
2018-06-22T09:59:46.962Z,17.9
2018-06-22T10:00:48.947Z,17.9
2018-06-22T10:01:50.949Z,18
2018-06-22T10:02:52.952Z,18.3
2018-06-22T10:03:54.970Z,18.5
2018-06-22T10:04:56.976Z,18.5
2018-06-22T10:05:59.085Z,18
2018-06-22T10:07:00.988Z,17.8
2018-06-22T10:08:02.985Z,17.6
2018-06-22T10:09:04.989Z,17.4
2018-06-22T10:10:06.990Z,17.3
2018-06-22T10:11:08.984Z,17.4
2018-06-22T10:12:11.019Z,17.8
2018-06-22T10:13:13.024Z,17.8
2018-06-22T10:14:15.311Z,17.7
2018-06-22T10:15:17.323Z,18
2018-06-22T10:16:19.321Z,18.1
2018-06-22T10:17:21.320Z,18.2
2018-06-22T10:18:23.330Z,18.3
2018-06-22T10:19:26.389Z,18.4
2018-06-22T10:20:28.408Z,19
2018-06-22T10:21:30.689Z,18.8
2018-06-22T10:22:32.700Z,19
2018-06-22T10:23:35.079Z,19.3
2018-06-22T10:24:37.097Z,19.3
2018-06-22T10:25:39.374Z,19.3
2018-06-22T10:26:41.383Z,18.2
2018-06-22T10:27:43.380Z,18.1
2018-06-22T10:28:45.663Z,17.9
2018-06-22T10:29:47.669Z,18
2018-06-22T10:30:49.675Z,17.8
2018-06-22T10:31:51.967Z,17.8
2018-06-22T10:32:53.975Z,17.8
2018-06-22T10:33:55.980Z,18.2
2018-06-22T10:34:57.971Z,18.3
2018-06-22T10:35:59.971Z,18.6
2018-06-22T10:37:02.000Z,18.6
2018-06-22T10:38:04.274Z,18.7
2018-06-22T10:39:06.296Z,18.4
2018-06-22T10:40:08.291Z,18.2
2018-06-22T10:41:10.283Z,18.6
2018-06-22T10:42:12.292Z,18.8
2018-06-22T10:43:14.322Z,19
2018-06-22T10:44:16.337Z,19.2
2018-06-22T10:45:18.337Z,19.3
2018-06-22T10:46:20.346Z,19.3
2018-06-22T10:47:22.354Z,19.6
2018-06-22T10:48:24.358Z,19.7
2018-06-22T10:49:27.040Z,19.5
2018-06-22T10:50:29.040Z,19.1
2018-06-22T10:51:31.588Z,19
2018-06-22T10:52:33.921Z,18.8
2018-06-22T10:53:35.882Z,19.2
2018-06-22T10:54:37.902Z,19.3
2018-06-22T10:55:39.907Z,19.5
2018-06-22T10:56:42.207Z,19.7
2018-06-22T10:57:44.484Z,19.7
2018-06-22T10:58:46.491Z,19.8
2018-06-22T10:59:48.594Z,19.8
2018-06-22T11:00:50.496Z,19.7
2018-06-22T11:01:52.776Z,20
2018-06-22T11:02:54.798Z,20.1
2018-06-22T11:03:56.808Z,20.2
2018-06-22T11:04:58.806Z,20.4
2018-06-22T11:06:00.814Z,19.8
2018-06-22T11:07:02.836Z,20.1
2018-06-22T11:08:04.854Z,20.2
2018-06-22T11:09:07.142Z,19.9
2018-06-22T11:10:09.150Z,20.6
2018-06-22T11:11:11.167Z,20.2
2018-06-22T11:12:13.463Z,20.1
2018-06-22T11:13:15.477Z,19.9
2018-06-22T11:14:17.507Z,19.8
2018-06-22T11:15:19.523Z,19.5
2018-06-22T11:16:21.848Z,19.2
2018-06-22T11:17:23.860Z,19.3
2018-06-22T11:18:26.758Z,18.8
2018-06-22T11:19:28.688Z,18.7
2018-06-22T11:20:31.281Z,19.1
2018-06-22T11:21:33.299Z,19.4
2018-06-22T11:22:35.595Z,19.8
2018-06-22T11:23:37.614Z,20.1
2018-06-22T11:24:39.630Z,20
2018-06-22T11:25:41.624Z,20.2
2018-06-22T11:26:43.640Z,20.1
2018-06-22T11:27:45.683Z,20.6
2018-06-22T11:28:47.703Z,20.6
2018-06-22T11:29:49.707Z,20.8
2018-06-22T11:30:51.816Z,21
2018-06-22T11:31:54.116Z,21.1
2018-06-22T11:32:56.113Z,21.3
2018-06-22T11:33:58.211Z,21
2018-06-22T11:35:00.204Z,20.6
2018-06-22T11:36:02.236Z,20
2018-06-22T11:37:04.276Z,19.9
2018-06-22T11:38:06.290Z,20.1
2018-06-22T11:39:08.327Z,20
2018-06-22T11:40:10.380Z,19.7
2018-06-22T11:41:12.459Z,19.9
2018-06-22T11:42:14.440Z,20.2
2018-06-22T11:43:16.461Z,20.3
2018-06-22T11:44:18.500Z,20.6
2018-06-22T11:45:20.515Z,20.1
2018-06-22T11:46:22.879Z,19.9
2018-06-22T11:47:24.908Z,20.5
2018-06-22T11:48:26.907Z,21
2018-06-22T11:49:28.936Z,21
2018-06-22T11:50:31.031Z,20.8
2018-06-22T11:51:33.080Z,20.3
2018-06-22T11:52:35.422Z,20.6
2018-06-22T11:53:37.451Z,20.2
2018-06-22T11:54:39.462Z,20.4
2018-06-22T11:55:41.756Z,20.2
2018-06-22T11:56:43.861Z,20.4
2018-06-22T11:57:45.897Z,20.6
2018-06-22T11:58:47.947Z,20.8
2018-06-22T11:59:50.238Z,21.1
2018-06-22T12:00:52.273Z,20.5
2018-06-22T12:01:54.590Z,20.7
2018-06-22T12:02:56.603Z,21.1
2018-06-22T12:03:58.618Z,21
2018-06-22T12:05:01.030Z,20.7
2018-06-22T12:06:03.333Z,20.3
2018-06-22T12:07:05.337Z,20.6
2018-06-22T12:08:07.358Z,20.8
2018-06-22T12:09:09.380Z,20.7
2018-06-22T12:10:11.402Z,21.3
2018-06-22T12:11:13.416Z,21.6
2018-06-22T12:12:15.430Z,21.8
2018-06-22T12:13:17.448Z,21.4
2018-06-22T12:14:19.735Z,21.6
2018-06-22T12:15:21.731Z,21.3
2018-06-22T12:16:23.747Z,20.9
2018-06-22T12:17:25.766Z,21
2018-06-22T12:18:27.772Z,20.5
2018-06-22T12:19:29.791Z,20.4
2018-06-22T12:20:31.821Z,20.4
2018-06-22T12:21:33.824Z,20.1
2018-06-22T12:22:35.833Z,20
2018-06-22T12:23:37.837Z,20
2018-06-22T12:24:39.847Z,20.6
2018-06-22T12:25:42.165Z,20.7
2018-06-22T12:26:44.201Z,20.7
2018-06-22T12:27:46.625Z,21
2018-06-22T12:28:48.652Z,21.3
2018-06-22T12:29:50.671Z,21.2
2018-06-22T12:30:52.979Z,21.3
2018-06-22T12:31:54.999Z,21.6
2018-06-22T12:32:57.016Z,21.8
2018-06-22T12:33:59.091Z,21.9
2018-06-22T12:35:01.129Z,21.6
2018-06-22T12:36:03.155Z,21.4
2018-06-22T12:37:05.245Z,20.5
2018-06-22T12:38:07.254Z,20.6
2018-06-22T12:39:09.276Z,20.8
2018-06-22T12:40:11.305Z,20.8
2018-06-22T12:41:13.322Z,21
2018-06-22T12:42:15.335Z,21.2
2018-06-22T12:43:17.360Z,21.4
2018-06-22T12:44:19.372Z,21.6
2018-06-22T12:45:21.398Z,21.3
2018-06-22T12:46:23.421Z,21.5
2018-06-22T12:47:25.440Z,21.2
2018-06-22T12:48:27.758Z,21.8
2018-06-22T12:49:30.208Z,22
2018-06-22T12:50:32.682Z,21.9
2018-06-22T12:51:34.679Z,21.9
2018-06-22T12:52:36.692Z,21.8
2018-06-22T12:53:38.700Z,21.9
2018-06-22T12:54:40.706Z,21.8
2018-06-22T12:55:42.711Z,22.2
2018-06-22T12:56:44.733Z,22.3
2018-06-22T12:57:47.036Z,22.3
2018-06-22T12:58:49.047Z,22.3
2018-06-22T12:59:51.060Z,21.9
2018-06-22T13:00:53.068Z,22.1
2018-06-22T13:01:55.084Z,21.9
2018-06-22T13:02:57.076Z,21.9
2018-06-22T13:03:59.481Z,21.9
2018-06-22T13:05:01.438Z,22.3
2018-06-22T13:06:03.449Z,22.4
2018-06-22T13:07:05.841Z,22.4
2018-06-22T13:08:08.125Z,21.8
2018-06-22T13:09:10.175Z,21.6
2018-06-22T13:10:12.136Z,21.5
2018-06-22T13:11:14.453Z,21.1
2018-06-22T13:12:16.473Z,21.2
2018-06-22T13:13:18.505Z,21.1
2018-06-22T13:14:20.564Z,21.1
2018-06-22T13:15:22.603Z,21.2
2018-06-22T13:16:24.653Z,21.6
2018-06-22T13:17:26.702Z,21
2018-06-22T13:18:28.757Z,21.1
2018-06-22T13:19:30.807Z,21
2018-06-22T13:20:33.137Z,21
2018-06-22T13:21:35.202Z,20.8
2018-06-22T13:22:37.255Z,20.6
2018-06-22T13:23:39.305Z,20.8
2018-06-22T13:24:41.346Z,20.6
2018-06-22T13:25:43.406Z,20.6
2018-06-22T13:26:45.454Z,20.5
2018-06-22T13:27:48.356Z,20.1
2018-06-22T13:28:50.443Z,20
2018-06-22T13:29:52.491Z,20
2018-06-22T13:30:54.921Z,19.8
2018-06-22T13:31:57.010Z,19.8
2018-06-22T13:32:59.060Z,19.9
2018-06-22T13:34:01.126Z,20.1
2018-06-22T13:35:03.168Z,20
2018-06-22T13:36:05.905Z,19.9
2018-06-22T13:37:07.961Z,19.8
2018-06-22T13:38:10.034Z,20.2
2018-06-22T13:39:12.373Z,20.3
2018-06-22T13:40:14.442Z,20.3
2018-06-22T13:41:16.502Z,20.3
2018-06-22T13:42:18.560Z,20.1
2018-06-22T13:43:21.345Z,20
2018-06-22T13:44:23.632Z,19.6
2018-06-22T13:45:26.094Z,19.6
2018-06-22T13:46:28.457Z,19.7
2018-06-22T13:47:30.510Z,20.1
2018-06-22T13:48:32.723Z,20.1
2018-06-22T13:49:34.779Z,20.1
2018-06-22T13:50:36.837Z,20.3
2018-06-22T13:51:38.934Z,20.5
2018-06-22T13:52:41.394Z,20.2
2018-06-22T13:53:43.515Z,20.7
2018-06-22T13:54:45.629Z,21
2018-06-22T13:55:47.730Z,21
2018-06-22T13:56:49.990Z,21.5
2018-06-22T13:57:52.779Z,21.6
2018-06-22T13:58:54.873Z,21.5
2018-06-22T13:59:56.948Z,21.5
2018-06-22T14:00:59.049Z,21.4
2018-06-22T14:02:01.156Z,21.1
2018-06-22T14:03:03.550Z,21.1
2018-06-22T14:04:05.903Z,20.9